Aeroporto :
LOGIN :

Iscrizione | Disclaimer

   EN    FR    IT 

 










Sommario :    VFR   VFR Marginale   IFR   IFR Intensivo   IFR Molto Intensivo
Visibilità : 
Base nubi : 
>= 8 km
>= 3000ft
5 / 8 km
1000 / 3000 ft
1500m / 5 km
500 / 1000 ft
800 / 1500m
200 / 500 ft
< 800m
< 200 ft
Simboli :   Temporali  Nebbia  Neve Forte  Precipitazioni Forti  Vento > 20 kt
SIGMETs :   Varie  Temporali  Ghiacco  Turbolenza  Onda orograficha  Ceneri Vulcaniche






- Altitudine del aeroporto : 17 ft
- Codice IATA : GRQ


EHGG - Groningen Eelde

ULTIMO METAR :
  • 122325Z AUTO 17012KT 120V210 9999 NCD 04/02 Q0995

METARs OBSOLETI :
  • 122255Z AUTO 17011G21KT 130V200 9999 FEW013 04/02 Q0996
  • 122225Z AUTO 17010KT 130V210 9999 NSC 04/02 Q0996
  • 122155Z AUTO 18011KT 150V210 9999 NSC 04/02 Q0996 NOSIG
  • 122125Z AUTO 19011KT 160V230 9999 NSC 04/02 Q0996 NOSIG
  • 122055Z AUTO 19012KT 140V220 9999 NCD 04/02 Q0996 NOSIG

TAF TAF EHGG
Valido dal 13 a 00 ore il 14 a 06 ore UTC


122313Z 1300/1406 17015KT 9999 BKN015
BECMG 1301/1304 20015KT BKN008
TEMPO 1301/1310 19015G25KT 4000 DZRA SHRA BKN004 FEW030CB
BECMG 1310/1313 23012KT SCT015 BKN030
TEMPO 1310/1317 7000 SHRA FEW020CB BKN030
BECMG 1314/1317 20008KT
BECMG 1318/1321 4000 BR
PROB40 1400/1404 1200 BKN004



MetMap, La meteo Aeronautica in un colpo d'occhio ! - Copyright ORBIFLY Dicembre 2007 - Disclaimer

ORBIFLY MET'MAP TEAM :

Programmazione e sviluppo : Alexandra Zaïnal
Concezione e sviluppo : Baudouin d'Aumeries
Co-Programmazione e sviluppo : Marc-Olivier Méhu
Supporto tecnico e logistico : Manuel Goepfert
Aiuto per la traduzione : Arnaldo La Scala

Contatto : metmap@orbifly.com




FONTI E CREDITI :

   NOAA